sensor_id;sensor_type;location;lat;lon;timestamp;P1;durP1;ratioP1;P2;durP2;ratioP2
23376;SDS011;14353;46.070;13.222;2023-01-29T00:02:25;14.07;;;11.05;;
23376;SDS011;14353;46.070;13.222;2023-01-29T00:04:51;14.30;;;11.55;;
23376;SDS011;14353;46.070;13.222;2023-01-29T00:07:17;13.35;;;10.93;;
23376;SDS011;14353;46.070;13.222;2023-01-29T00:09:43;14.70;;;11.75;;
23376;SDS011;14353;46.070;13.222;2023-01-29T00:12:09;14.10;;;11.05;;
23376;SDS011;14353;46.070;13.222;2023-01-29T00:14:34;14.50;;;11.27;;
23376;SDS011;14353;46.070;13.222;2023-01-29T00:17:00;14.88;;;11.88;;
23376;SDS011;14353;46.070;13.222;2023-01-29T00:19:26;13.50;;;10.73;;
23376;SDS011;14353;46.070;13.222;2023-01-29T00:21:51;14.00;;;11.18;;
23376;SDS011;14353;46.070;13.222;2023-01-29T00:24:17;13.57;;;10.80;;
23376;SDS011;14353;46.070;13.222;2023-01-29T00:26:43;15.25;;;11.75;;
23376;SDS011;14353;46.070;13.222;2023-01-29T00:29:09;14.55;;;11.73;;
23376;SDS011;14353;46.070;13.222;2023-01-29T00:31:35;14.00;;;10.98;;
23376;SDS011;14353;46.070;13.222;2023-01-29T00:34:00;15.25;;;11.73;;
23376;SDS011;14353;46.070;13.222;2023-01-29T00:36:26;16.90;;;12.35;;
23376;SDS011;14353;46.070;13.222;2023-01-29T00:38:56;15.13;;;11.63;;
23376;SDS011;14353;46.070;13.222;2023-01-29T00:41:24;14.95;;;11.60;;
23376;SDS011;14353;46.070;13.222;2023-01-29T00:44:10;14.57;;;11.68;;
23376;SDS011;14353;46.070;13.222;2023-01-29T00:46:55;14.30;;;11.38;;
23376;SDS011;14353;46.070;13.222;2023-01-29T00:49:20;15.48;;;11.98;;
23376;SDS011;14353;46.070;13.222;2023-01-29T00:51:47;15.20;;;12.25;;
23376;SDS011;14353;46.070;13.222;2023-01-29T00:54:32;15.68;;;11.88;;
23376;SDS011;14353;46.070;13.222;2023-01-29T00:56:58;15.13;;;12.13;;
23376;SDS011;14353;46.070;13.222;2023-01-29T00:59:25;14.10;;;11.93;;
23376;SDS011;14353;46.070;13.222;2023-01-29T01:01:51;14.80;;;11.63;;
23376;SDS011;14353;46.070;13.222;2023-01-29T01:07:00;15.25;;;11.85;;
23376;SDS011;14353;46.070;13.222;2023-01-29T01:09:26;13.93;;;11.70;;
23376;SDS011;14353;46.070;13.222;2023-01-29T01:12:10;16.60;;;12.82;;
23376;SDS011;14353;46.070;13.222;2023-01-29T01:14:35;15.65;;;12.07;;
23376;SDS011;14353;46.070;13.222;2023-01-29T01:17:01;15.00;;;12.18;;
23376;SDS011;14353;46.070;13.222;2023-01-29T01:19:27;15.40;;;12.25;;
23376;SDS011;14353;46.070;13.222;2023-01-29T01:21:53;15.32;;;12.13;;
23376;SDS011;14353;46.070;13.222;2023-01-29T01:24:18;16.73;;;12.45;;
23376;SDS011;14353;46.070;13.222;2023-01-29T01:26:44;15.00;;;12.18;;
23376;SDS011;14353;46.070;13.222;2023-01-29T01:29:10;15.77;;;12.65;;
23376;SDS011;14353;46.070;13.222;2023-01-29T01:31:36;15.35;;;12.52;;
23376;SDS011;14353;46.070;13.222;2023-01-29T01:34:02;14.60;;;11.93;;
23376;SDS011;14353;46.070;13.222;2023-01-29T01:36:28;15.57;;;12.52;;
23376;SDS011;14353;46.070;13.222;2023-01-29T01:38:56;15.05;;;12.50;;
23376;SDS011;14353;46.070;13.222;2023-01-29T01:41:22;15.85;;;12.55;;
23376;SDS011;14353;46.070;13.222;2023-01-29T01:43:55;16.45;;;12.10;;
23376;SDS011;14353;46.070;13.222;2023-01-29T01:46:23;16.40;;;12.57;;
23376;SDS011;14353;46.070;13.222;2023-01-29T01:49:01;15.73;;;11.85;;
23376;SDS011;14353;46.070;13.222;2023-01-29T01:51:37;15.73;;;12.32;;
23376;SDS011;14353;46.070;13.222;2023-01-29T01:54:11;14.52;;;11.75;;
23376;SDS011;14353;46.070;13.222;2023-01-29T01:56:42;15.38;;;12.00;;
23376;SDS011;14353;46.070;13.222;2023-01-29T01:59:13;15.63;;;12.35;;
23376;SDS011;14353;46.070;13.222;2023-01-29T02:01:42;15.73;;;12.32;;
23376;SDS011;14353;46.070;13.222;2023-01-29T02:04:15;15.55;;;12.55;;
23376;SDS011;14353;46.070;13.222;2023-01-29T02:07:03;15.52;;;12.45;;
23376;SDS011;14353;46.070;13.222;2023-01-29T02:09:59;15.98;;;12.50;;
23376;SDS011;14353;46.070;13.222;2023-01-29T02:12:40;15.60;;;12.13;;
23376;SDS011;14353;46.070;13.222;2023-01-29T02:15:07;16.38;;;12.68;;
23376;SDS011;14353;46.070;13.222;2023-01-29T02:17:33;16.48;;;12.80;;
23376;SDS011;14353;46.070;13.222;2023-01-29T02:31:47;16.48;;;13.18;;
23376;SDS011;14353;46.070;13.222;2023-01-29T02:34:24;16.20;;;13.05;;
23376;SDS011;14353;46.070;13.222;2023-01-29T02:37:36;15.98;;;13.00;;
23376;SDS011;14353;46.070;13.222;2023-01-29T02:40:12;15.80;;;12.73;;
23376;SDS011;14353;46.070;13.222;2023-01-29T02:42:49;16.38;;;13.20;;
23376;SDS011;14353;46.070;13.222;2023-01-29T02:45:21;15.77;;;12.55;;
23376;SDS011;14353;46.070;13.222;2023-01-29T02:48:02;16.00;;;12.95;;
23376;SDS011;14353;46.070;13.222;2023-01-29T02:50:33;16.50;;;12.55;;
23376;SDS011;14353;46.070;13.222;2023-01-29T02:56:16;16.10;;;12.40;;
23376;SDS011;14353;46.070;13.222;2023-01-29T02:59:07;18.35;;;13.27;;
23376;SDS011;14353;46.070;13.222;2023-01-29T03:01:55;16.45;;;12.75;;
23376;SDS011;14353;46.070;13.222;2023-01-29T03:04:32;14.82;;;12.10;;
23376;SDS011;14353;46.070;13.222;2023-01-29T03:07:11;16.33;;;12.77;;
23376;SDS011;14353;46.070;13.222;2023-01-29T03:10:02;16.02;;;12.85;;
23376;SDS011;14353;46.070;13.222;2023-01-29T03:12:33;16.48;;;13.15;;
23376;SDS011;14353;46.070;13.222;2023-01-29T03:15:15;16.27;;;12.48;;
23376;SDS011;14353;46.070;13.222;2023-01-29T03:20:45;15.88;;;12.93;;
23376;SDS011;14353;46.070;13.222;2023-01-29T03:23:24;16.70;;;13.30;;
23376;SDS011;14353;46.070;13.222;2023-01-29T03:26:14;16.55;;;13.50;;
23376;SDS011;14353;46.070;13.222;2023-01-29T03:29:00;16.65;;;13.05;;
23376;SDS011;14353;46.070;13.222;2023-01-29T03:31:47;17.38;;;13.80;;
23376;SDS011;14353;46.070;13.222;2023-01-29T03:34:32;17.00;;;13.20;;
23376;SDS011;14353;46.070;13.222;2023-01-29T03:37:28;16.70;;;12.65;;
23376;SDS011;14353;46.070;13.222;2023-01-29T03:40:03;16.20;;;12.38;;
23376;SDS011;14353;46.070;13.222;2023-01-29T03:42:54;15.07;;;12.57;;
23376;SDS011;14353;46.070;13.222;2023-01-29T03:48:19;17.02;;;13.05;;
23376;SDS011;14353;46.070;13.222;2023-01-29T03:50:51;17.52;;;13.38;;
23376;SDS011;14353;46.070;13.222;2023-01-29T03:56:30;17.17;;;13.35;;
23376;SDS011;14353;46.070;13.222;2023-01-29T04:01:49;18.35;;;13.68;;
23376;SDS011;14353;46.070;13.222;2023-01-29T04:04:35;15.90;;;12.95;;
23376;SDS011;14353;46.070;13.222;2023-01-29T04:07:07;16.42;;;12.15;;
23376;SDS011;14353;46.070;13.222;2023-01-29T04:09:47;17.60;;;13.57;;
23376;SDS011;14353;46.070;13.222;2023-01-29T04:12:25;17.55;;;12.63;;
23376;SDS011;14353;46.070;13.222;2023-01-29T04:14:54;17.05;;;13.02;;
23376;SDS011;14353;46.070;13.222;2023-01-29T04:17:24;16.52;;;12.90;;
23376;SDS011;14353;46.070;13.222;2023-01-29T04:19:57;16.20;;;12.38;;
23376;SDS011;14353;46.070;13.222;2023-01-29T04:22:32;15.48;;;12.23;;
23376;SDS011;14353;46.070;13.222;2023-01-29T04:25:01;16.70;;;12.98;;
23376;SDS011;14353;46.070;13.222;2023-01-29T04:30:18;15.00;;;12.40;;
23376;SDS011;14353;46.070;13.222;2023-01-29T04:41:24;15.30;;;12.35;;
23376;SDS011;14353;46.070;13.222;2023-01-29T04:44:08;16.75;;;12.38;;
23376;SDS011;14353;46.070;13.222;2023-01-29T04:46:51;15.30;;;12.57;;
23376;SDS011;14353;46.070;13.222;2023-01-29T04:57:10;15.93;;;12.48;;
23376;SDS011;14353;46.070;13.222;2023-01-29T04:59:43;16.23;;;12.27;;
23376;SDS011;14353;46.070;13.222;2023-01-29T05:02:12;15.52;;;12.52;;
23376;SDS011;14353;46.070;13.222;2023-01-29T05:04:38;15.40;;;12.48;;
23376;SDS011;14353;46.070;13.222;2023-01-29T05:07:09;15.45;;;12.15;;
23376;SDS011;14353;46.070;13.222;2023-01-29T05:09:38;16.38;;;12.52;;
23376;SDS011;14353;46.070;13.222;2023-01-29T05:12:06;16.48;;;12.65;;
23376;SDS011;14353;46.070;13.222;2023-01-29T05:14:36;15.10;;;12.38;;
23376;SDS011;14353;46.070;13.222;2023-01-29T05:17:08;15.43;;;12.18;;
23376;SDS011;14353;46.070;13.222;2023-01-29T05:19:40;16.40;;;13.00;;
23376;SDS011;14353;46.070;13.222;2023-01-29T05:22:07;15.95;;;12.90;;
23376;SDS011;14353;46.070;13.222;2023-01-29T05:24:35;15.73;;;12.10;;
23376;SDS011;14353;46.070;13.222;2023-01-29T05:27:01;15.82;;;12.90;;
23376;SDS011;14353;46.070;13.222;2023-01-29T05:29:46;15.40;;;11.68;;
23376;SDS011;14353;46.070;13.222;2023-01-29T05:32:12;14.70;;;11.88;;
23376;SDS011;14353;46.070;13.222;2023-01-29T05:34:39;14.70;;;11.82;;
23376;SDS011;14353;46.070;13.222;2023-01-29T05:37:05;14.70;;;12.25;;
23376;SDS011;14353;46.070;13.222;2023-01-29T05:39:30;15.35;;;12.32;;
23376;SDS011;14353;46.070;13.222;2023-01-29T05:41:57;14.93;;;12.07;;
23376;SDS011;14353;46.070;13.222;2023-01-29T05:44:23;15.57;;;12.05;;
23376;SDS011;14353;46.070;13.222;2023-01-29T05:46:49;15.75;;;12.15;;
23376;SDS011;14353;46.070;13.222;2023-01-29T05:49:16;15.23;;;12.35;;
23376;SDS011;14353;46.070;13.222;2023-01-29T05:51:42;16.05;;;12.32;;
23376;SDS011;14353;46.070;13.222;2023-01-29T05:54:10;14.52;;;11.88;;
23376;SDS011;14353;46.070;13.222;2023-01-29T05:56:36;14.82;;;12.13;;
23376;SDS011;14353;46.070;13.222;2023-01-29T05:59:02;14.27;;;11.85;;
23376;SDS011;14353;46.070;13.222;2023-01-29T06:01:28;14.88;;;11.60;;
23376;SDS011;14353;46.070;13.222;2023-01-29T06:03:53;15.07;;;11.85;;
23376;SDS011;14353;46.070;13.222;2023-01-29T06:06:19;14.93;;;11.95;;
23376;SDS011;14353;46.070;13.222;2023-01-29T06:08:45;15.55;;;12.15;;
23376;SDS011;14353;46.070;13.222;2023-01-29T06:11:12;14.38;;;11.57;;
23376;SDS011;14353;46.070;13.222;2023-01-29T06:13:38;15.70;;;12.27;;
23376;SDS011;14353;46.070;13.222;2023-01-29T06:16:07;14.93;;;12.15;;
23376;SDS011;14353;46.070;13.222;2023-01-29T06:18:34;14.82;;;11.90;;
23376;SDS011;14353;46.070;13.222;2023-01-29T06:21:01;15.43;;;12.35;;
23376;SDS011;14353;46.070;13.222;2023-01-29T06:23:28;14.90;;;12.10;;
23376;SDS011;14353;46.070;13.222;2023-01-29T06:26:01;14.15;;;11.45;;
23376;SDS011;14353;46.070;13.222;2023-01-29T06:28:29;14.63;;;11.93;;
23376;SDS011;14353;46.070;13.222;2023-01-29T06:30:58;15.18;;;11.80;;
23376;SDS011;14353;46.070;13.222;2023-01-29T06:33:28;15.57;;;11.85;;
23376;SDS011;14353;46.070;13.222;2023-01-29T06:35:57;14.48;;;11.75;;
23376;SDS011;14353;46.070;13.222;2023-01-29T06:38:24;15.95;;;11.77;;
23376;SDS011;14353;46.070;13.222;2023-01-29T06:40:50;14.35;;;11.60;;
23376;SDS011;14353;46.070;13.222;2023-01-29T06:43:17;13.77;;;11.30;;
23376;SDS011;14353;46.070;13.222;2023-01-29T06:45:47;12.93;;;10.82;;
23376;SDS011;14353;46.070;13.222;2023-01-29T06:48:17;13.05;;;10.60;;
23376;SDS011;14353;46.070;13.222;2023-01-29T06:50:43;15.10;;;12.18;;
23376;SDS011;14353;46.070;13.222;2023-01-29T06:53:10;15.05;;;11.65;;
23376;SDS011;14353;46.070;13.222;2023-01-29T06:55:36;15.48;;;11.63;;
23376;SDS011;14353;46.070;13.222;2023-01-29T06:58:10;13.48;;;11.07;;
23376;SDS011;14353;46.070;13.222;2023-01-29T07:03:02;14.10;;;11.57;;
23376;SDS011;14353;46.070;13.222;2023-01-29T07:05:28;13.95;;;10.93;;
23376;SDS011;14353;46.070;13.222;2023-01-29T07:07:57;14.35;;;10.80;;
23376;SDS011;14353;46.070;13.222;2023-01-29T07:10:22;13.68;;;11.00;;
23376;SDS011;14353;46.070;13.222;2023-01-29T07:12:48;13.15;;;11.35;;
23376;SDS011;14353;46.070;13.222;2023-01-29T07:15:14;14.80;;;10.88;;
23376;SDS011;14353;46.070;13.222;2023-01-29T07:17:54;15.68;;;11.27;;
23376;SDS011;14353;46.070;13.222;2023-01-29T07:20:28;13.75;;;10.85;;
23376;SDS011;14353;46.070;13.222;2023-01-29T07:22:55;14.38;;;11.20;;
23376;SDS011;14353;46.070;13.222;2023-01-29T07:25:22;15.00;;;11.95;;
23376;SDS011;14353;46.070;13.222;2023-01-29T07:27:49;13.25;;;11.15;;
23376;SDS011;14353;46.070;13.222;2023-01-29T07:30:15;14.63;;;11.13;;
23376;SDS011;14353;46.070;13.222;2023-01-29T07:32:41;14.63;;;11.90;;
23376;SDS011;14353;46.070;13.222;2023-01-29T07:35:07;12.75;;;10.55;;
23376;SDS011;14353;46.070;13.222;2023-01-29T07:37:33;13.95;;;10.95;;
23376;SDS011;14353;46.070;13.222;2023-01-29T07:39:59;14.15;;;11.27;;
23376;SDS011;14353;46.070;13.222;2023-01-29T07:42:25;13.88;;;10.88;;
23376;SDS011;14353;46.070;13.222;2023-01-29T07:44:51;13.60;;;10.95;;
23376;SDS011;14353;46.070;13.222;2023-01-29T07:47:16;13.80;;;11.00;;
23376;SDS011;14353;46.070;13.222;2023-01-29T07:49:42;13.30;;;10.43;;
23376;SDS011;14353;46.070;13.222;2023-01-29T07:52:08;14.25;;;11.40;;
23376;SDS011;14353;46.070;13.222;2023-01-29T07:54:33;13.65;;;10.98;;
23376;SDS011;14353;46.070;13.222;2023-01-29T07:56:59;13.48;;;11.02;;
23376;SDS011;14353;46.070;13.222;2023-01-29T07:59:25;13.95;;;11.07;;
23376;SDS011;14353;46.070;13.222;2023-01-29T08:01:50;12.82;;;10.23;;
23376;SDS011;14353;46.070;13.222;2023-01-29T08:04:16;13.18;;;10.38;;
23376;SDS011;14353;46.070;13.222;2023-01-29T08:06:42;12.70;;;10.55;;
23376;SDS011;14353;46.070;13.222;2023-01-29T08:09:08;12.60;;;10.82;;
23376;SDS011;14353;46.070;13.222;2023-01-29T08:11:34;14.52;;;11.32;;
23376;SDS011;14353;46.070;13.222;2023-01-29T08:14:00;14.27;;;10.90;;
23376;SDS011;14353;46.070;13.222;2023-01-29T08:16:26;13.23;;;10.57;;
23376;SDS011;14353;46.070;13.222;2023-01-29T08:18:52;15.38;;;11.18;;
23376;SDS011;14353;46.070;13.222;2023-01-29T08:21:17;12.50;;;9.65;;
23376;SDS011;14353;46.070;13.222;2023-01-29T08:23:43;14.07;;;11.52;;
23376;SDS011;14353;46.070;13.222;2023-01-29T08:26:11;13.77;;;11.05;;
23376;SDS011;14353;46.070;13.222;2023-01-29T08:28:37;14.35;;;11.40;;
23376;SDS011;14353;46.070;13.222;2023-01-29T08:31:03;12.77;;;10.75;;
23376;SDS011;14353;46.070;13.222;2023-01-29T08:33:36;13.98;;;11.00;;
23376;SDS011;14353;46.070;13.222;2023-01-29T08:36:02;13.18;;;10.52;;
23376;SDS011;14353;46.070;13.222;2023-01-29T08:38:27;13.13;;;10.68;;
23376;SDS011;14353;46.070;13.222;2023-01-29T08:40:53;13.70;;;10.88;;
23376;SDS011;14353;46.070;13.222;2023-01-29T08:43:19;13.80;;;10.80;;
23376;SDS011;14353;46.070;13.222;2023-01-29T08:45:44;13.50;;;10.38;;
23376;SDS011;14353;46.070;13.222;2023-01-29T08:48:10;13.13;;;10.85;;
23376;SDS011;14353;46.070;13.222;2023-01-29T08:50:36;14.32;;;10.82;;
23376;SDS011;14353;46.070;13.222;2023-01-29T08:53:03;13.32;;;10.60;;
23376;SDS011;14353;46.070;13.222;2023-01-29T08:55:31;14.40;;;11.18;;
23376;SDS011;14353;46.070;13.222;2023-01-29T08:57:59;12.35;;;10.25;;
23376;SDS011;14353;46.070;13.222;2023-01-29T09:00:25;13.65;;;10.93;;
23376;SDS011;14353;46.070;13.222;2023-01-29T09:02:50;13.80;;;10.82;;
23376;SDS011;14353;46.070;13.222;2023-01-29T09:05:16;12.52;;;10.63;;
23376;SDS011;14353;46.070;13.222;2023-01-29T09:07:43;13.43;;;10.50;;
23376;SDS011;14353;46.070;13.222;2023-01-29T09:10:09;12.98;;;10.32;;
23376;SDS011;14353;46.070;13.222;2023-01-29T09:12:36;13.18;;;10.50;;
23376;SDS011;14353;46.070;13.222;2023-01-29T09:15:01;12.95;;;10.57;;
23376;SDS011;14353;46.070;13.222;2023-01-29T09:17:27;13.15;;;10.60;;
23376;SDS011;14353;46.070;13.222;2023-01-29T09:19:53;13.68;;;10.63;;
23376;SDS011;14353;46.070;13.222;2023-01-29T09:22:19;13.43;;;10.90;;
23376;SDS011;14353;46.070;13.222;2023-01-29T09:24:45;12.90;;;10.80;;
23376;SDS011;14353;46.070;13.222;2023-01-29T09:27:10;13.63;;;10.85;;
23376;SDS011;14353;46.070;13.222;2023-01-29T09:29:36;12.10;;;10.07;;
23376;SDS011;14353;46.070;13.222;2023-01-29T09:32:03;14.07;;;10.88;;
23376;SDS011;14353;46.070;13.222;2023-01-29T09:34:29;13.35;;;10.88;;
23376;SDS011;14353;46.070;13.222;2023-01-29T09:36:55;13.80;;;10.10;;
23376;SDS011;14353;46.070;13.222;2023-01-29T09:39:20;11.80;;;10.32;;
23376;SDS011;14353;46.070;13.222;2023-01-29T09:47:05;13.50;;;10.73;;
23376;SDS011;14353;46.070;13.222;2023-01-29T09:49:38;13.80;;;10.35;;
23376;SDS011;14353;46.070;13.222;2023-01-29T09:52:29;12.10;;;9.90;;
23376;SDS011;14353;46.070;13.222;2023-01-29T09:55:19;13.00;;;10.55;;
23376;SDS011;14353;46.070;13.222;2023-01-29T10:00:18;13.95;;;10.52;;
23376;SDS011;14353;46.070;13.222;2023-01-29T10:03:12;12.10;;;9.90;;
23376;SDS011;14353;46.070;13.222;2023-01-29T10:05:46;12.82;;;10.35;;
23376;SDS011;14353;46.070;13.222;2023-01-29T10:27:09;13.15;;;10.45;;
23376;SDS011;14353;46.070;13.222;2023-01-29T10:29:39;12.73;;;9.85;;
23376;SDS011;14353;46.070;13.222;2023-01-29T10:32:07;12.13;;;10.02;;
23376;SDS011;14353;46.070;13.222;2023-01-29T10:34:53;12.90;;;10.68;;
23376;SDS011;14353;46.070;13.222;2023-01-29T10:37:25;13.45;;;10.10;;
23376;SDS011;14353;46.070;13.222;2023-01-29T10:40:38;12.32;;;10.10;;
23376;SDS011;14353;46.070;13.222;2023-01-29T10:43:02;12.07;;;10.30;;
23376;SDS011;14353;46.070;13.222;2023-01-29T10:54:00;12.60;;;10.05;;
23376;SDS011;14353;46.070;13.222;2023-01-29T10:59:26;13.52;;;10.32;;
23376;SDS011;14353;46.070;13.222;2023-01-29T11:02:19;12.75;;;10.23;;
23376;SDS011;14353;46.070;13.222;2023-01-29T11:04:46;13.25;;;10.20;;
23376;SDS011;14353;46.070;13.222;2023-01-29T11:07:13;12.23;;;10.05;;
23376;SDS011;14353;46.070;13.222;2023-01-29T11:12:32;11.95;;;9.70;;
23376;SDS011;14353;46.070;13.222;2023-01-29T11:15:04;12.93;;;10.25;;
23376;SDS011;14353;46.070;13.222;2023-01-29T11:20:37;11.52;;;9.55;;
23376;SDS011;14353;46.070;13.222;2023-01-29T11:23:05;10.85;;;9.02;;
23376;SDS011;14353;46.070;13.222;2023-01-29T11:25:31;11.50;;;9.68;;
23376;SDS011;14353;46.070;13.222;2023-01-29T11:27:57;11.90;;;10.00;;
23376;SDS011;14353;46.070;13.222;2023-01-29T11:30:29;11.55;;;9.38;;
23376;SDS011;14353;46.070;13.222;2023-01-29T11:33:11;11.68;;;9.63;;
23376;SDS011;14353;46.070;13.222;2023-01-29T11:35:43;11.80;;;9.60;;
23376;SDS011;14353;46.070;13.222;2023-01-29T11:40:48;11.70;;;9.80;;
23376;SDS011;14353;46.070;13.222;2023-01-29T11:43:48;12.35;;;9.65;;
23376;SDS011;14353;46.070;13.222;2023-01-29T11:46:10;11.45;;;9.57;;
23376;SDS011;14353;46.070;13.222;2023-01-29T11:48:40;12.13;;;9.95;;
23376;SDS011;14353;46.070;13.222;2023-01-29T11:51:06;11.75;;;9.32;;
23376;SDS011;14353;46.070;13.222;2023-01-29T11:53:36;12.48;;;9.70;;
23376;SDS011;14353;46.070;13.222;2023-01-29T11:56:15;11.60;;;9.07;;
23376;SDS011;14353;46.070;13.222;2023-01-29T11:58:47;12.55;;;10.02;;
23376;SDS011;14353;46.070;13.222;2023-01-29T12:01:15;11.80;;;9.68;;
23376;SDS011;14353;46.070;13.222;2023-01-29T12:03:50;11.50;;;9.48;;
23376;SDS011;14353;46.070;13.222;2023-01-29T12:06:51;12.38;;;9.88;;
23376;SDS011;14353;46.070;13.222;2023-01-29T12:09:14;11.40;;;9.23;;
23376;SDS011;14353;46.070;13.222;2023-01-29T12:11:43;11.57;;;9.30;;
23376;SDS011;14353;46.070;13.222;2023-01-29T12:14:29;11.13;;;9.25;;
23376;SDS011;14353;46.070;13.222;2023-01-29T12:19:37;10.32;;;9.05;;
23376;SDS011;14353;46.070;13.222;2023-01-29T12:22:17;11.80;;;9.40;;
23376;SDS011;14353;46.070;13.222;2023-01-29T12:24:51;11.20;;;9.37;;
23376;SDS011;14353;46.070;13.222;2023-01-29T12:30:24;9.98;;;8.48;;
23376;SDS011;14353;46.070;13.222;2023-01-29T12:33:18;10.88;;;9.43;;
23376;SDS011;14353;46.070;13.222;2023-01-29T12:38:36;10.40;;;8.82;;
23376;SDS011;14353;46.070;13.222;2023-01-29T12:41:07;11.05;;;9.30;;
23376;SDS011;14353;46.070;13.222;2023-01-29T12:43:49;11.30;;;9.20;;
23376;SDS011;14353;46.070;13.222;2023-01-29T12:46:37;11.48;;;9.93;;
23376;SDS011;14353;46.070;13.222;2023-01-29T12:49:14;11.40;;;8.93;;
23376;SDS011;14353;46.070;13.222;2023-01-29T12:52:18;11.57;;;9.50;;
23376;SDS011;14353;46.070;13.222;2023-01-29T12:54:47;10.52;;;8.98;;
23376;SDS011;14353;46.070;13.222;2023-01-29T12:57:20;10.95;;;8.82;;
23376;SDS011;14353;46.070;13.222;2023-01-29T13:00:01;11.40;;;9.73;;
23376;SDS011;14353;46.070;13.222;2023-01-29T13:02:43;10.15;;;9.02;;
23376;SDS011;14353;46.070;13.222;2023-01-29T13:05:28;12.45;;;9.68;;
23376;SDS011;14353;46.070;13.222;2023-01-29T13:08:07;11.35;;;9.07;;
23376;SDS011;14353;46.070;13.222;2023-01-29T13:10:40;10.80;;;8.68;;
23376;SDS011;14353;46.070;13.222;2023-01-29T13:13:13;10.52;;;8.75;;
23376;SDS011;14353;46.070;13.222;2023-01-29T13:15:48;10.07;;;8.68;;
23376;SDS011;14353;46.070;13.222;2023-01-29T13:20:53;11.65;;;8.82;;
23376;SDS011;14353;46.070;13.222;2023-01-29T13:23:21;9.23;;;8.30;;
23376;SDS011;14353;46.070;13.222;2023-01-29T13:25:52;10.35;;;8.52;;
23376;SDS011;14353;46.070;13.222;2023-01-29T13:28:20;11.00;;;8.75;;
23376;SDS011;14353;46.070;13.222;2023-01-29T13:31:08;10.13;;;8.32;;
23376;SDS011;14353;46.070;13.222;2023-01-29T13:39:47;10.40;;;8.52;;
23376;SDS011;14353;46.070;13.222;2023-01-29T13:42:31;9.63;;;8.25;;
23376;SDS011;14353;46.070;13.222;2023-01-29T13:45:43;10.18;;;8.52;;
23376;SDS011;14353;46.070;13.222;2023-01-29T13:50:37;9.88;;;8.50;;
23376;SDS011;14353;46.070;13.222;2023-01-29T13:53:06;8.77;;;7.60;;
23376;SDS011;14353;46.070;13.222;2023-01-29T13:55:43;10.15;;;8.60;;
23376;SDS011;14353;46.070;13.222;2023-01-29T13:58:14;11.00;;;8.60;;
23376;SDS011;14353;46.070;13.222;2023-01-29T14:10:33;9.93;;;8.10;;
23376;SDS011;14353;46.070;13.222;2023-01-29T14:15:45;9.77;;;8.10;;
23376;SDS011;14353;46.070;13.222;2023-01-29T14:18:31;8.82;;;7.88;;
23376;SDS011;14353;46.070;13.222;2023-01-29T14:23:46;9.48;;;8.23;;
23376;SDS011;14353;46.070;13.222;2023-01-29T14:28:56;9.95;;;8.30;;
23376;SDS011;14353;46.070;13.222;2023-01-29T14:31:51;10.32;;;8.30;;
23376;SDS011;14353;46.070;13.222;2023-01-29T14:36:55;10.85;;;8.60;;
23376;SDS011;14353;46.070;13.222;2023-01-29T14:39:48;10.27;;;8.05;;
23376;SDS011;14353;46.070;13.222;2023-01-29T14:42:17;10.10;;;8.43;;
23376;SDS011;14353;46.070;13.222;2023-01-29T14:48:01;9.20;;;8.02;;
23376;SDS011;14353;46.070;13.222;2023-01-29T14:56:02;10.45;;;8.05;;
23376;SDS011;14353;46.070;13.222;2023-01-29T14:58:40;9.93;;;7.80;;
23376;SDS011;14353;46.070;13.222;2023-01-29T15:01:51;9.52;;;8.13;;
23376;SDS011;14353;46.070;13.222;2023-01-29T15:04:05;10.05;;;8.20;;
23376;SDS011;14353;46.070;13.222;2023-01-29T15:09:11;10.70;;;8.00;;
23376;SDS011;14353;46.070;13.222;2023-01-29T15:17:00;9.18;;;8.00;;
23376;SDS011;14353;46.070;13.222;2023-01-29T15:19:41;9.30;;;7.80;;
23376;SDS011;14353;46.070;13.222;2023-01-29T15:22:12;8.70;;;7.55;;
23376;SDS011;14353;46.070;13.222;2023-01-29T15:24:43;9.57;;;8.02;;
23376;SDS011;14353;46.070;13.222;2023-01-29T15:27:14;10.00;;;8.05;;
23376;SDS011;14353;46.070;13.222;2023-01-29T15:29:45;9.48;;;8.00;;
23376;SDS011;14353;46.070;13.222;2023-01-29T15:32:30;9.57;;;7.80;;
23376;SDS011;14353;46.070;13.222;2023-01-29T15:34:58;9.95;;;8.45;;
23376;SDS011;14353;46.070;13.222;2023-01-29T15:37:26;8.98;;;7.68;;
23376;SDS011;14353;46.070;13.222;2023-01-29T15:39:57;9.32;;;7.97;;
23376;SDS011;14353;46.070;13.222;2023-01-29T15:42:25;10.80;;;8.27;;
23376;SDS011;14353;46.070;13.222;2023-01-29T15:44:52;9.55;;;8.07;;
23376;SDS011;14353;46.070;13.222;2023-01-29T15:47:19;10.52;;;8.18;;
23376;SDS011;14353;46.070;13.222;2023-01-29T15:49:48;9.70;;;8.60;;
23376;SDS011;14353;46.070;13.222;2023-01-29T15:52:16;8.98;;;7.90;;
23376;SDS011;14353;46.070;13.222;2023-01-29T15:54:48;9.32;;;8.30;;
23376;SDS011;14353;46.070;13.222;2023-01-29T15:57:27;10.45;;;8.27;;
23376;SDS011;14353;46.070;13.222;2023-01-29T15:59:59;9.93;;;8.35;;
23376;SDS011;14353;46.070;13.222;2023-01-29T16:02:39;9.52;;;8.07;;
23376;SDS011;14353;46.070;13.222;2023-01-29T16:05:09;8.85;;;7.47;;
23376;SDS011;14353;46.070;13.222;2023-01-29T16:07:41;9.90;;;7.72;;
23376;SDS011;14353;46.070;13.222;2023-01-29T16:10:17;9.68;;;8.30;;
23376;SDS011;14353;46.070;13.222;2023-01-29T16:12:46;10.30;;;8.30;;
23376;SDS011;14353;46.070;13.222;2023-01-29T16:15:29;9.65;;;7.72;;
23376;SDS011;14353;46.070;13.222;2023-01-29T16:18:01;9.68;;;7.80;;
23376;SDS011;14353;46.070;13.222;2023-01-29T16:20:44;10.65;;;8.40;;
23376;SDS011;14353;46.070;13.222;2023-01-29T16:23:27;10.18;;;8.15;;
23376;SDS011;14353;46.070;13.222;2023-01-29T16:25:55;9.20;;;8.07;;
23376;SDS011;14353;46.070;13.222;2023-01-29T16:28:26;9.63;;;7.88;;
23376;SDS011;14353;46.070;13.222;2023-01-29T16:30:56;8.77;;;7.63;;
23376;SDS011;14353;46.070;13.222;2023-01-29T16:33:26;9.48;;;7.82;;
23376;SDS011;14353;46.070;13.222;2023-01-29T16:35:57;8.70;;;7.80;;
23376;SDS011;14353;46.070;13.222;2023-01-29T16:38:25;8.95;;;7.68;;
23376;SDS011;14353;46.070;13.222;2023-01-29T16:41:05;9.48;;;8.10;;
23376;SDS011;14353;46.070;13.222;2023-01-29T16:48:53;9.15;;;7.88;;
23376;SDS011;14353;46.070;13.222;2023-01-29T16:51:26;10.15;;;8.55;;
23376;SDS011;14353;46.070;13.222;2023-01-29T16:53:55;10.05;;;8.30;;
23376;SDS011;14353;46.070;13.222;2023-01-29T16:56:51;9.90;;;7.97;;
23376;SDS011;14353;46.070;13.222;2023-01-29T16:59:20;9.27;;;7.40;;
23376;SDS011;14353;46.070;13.222;2023-01-29T17:01:56;9.25;;;7.82;;
23376;SDS011;14353;46.070;13.222;2023-01-29T17:04:23;9.32;;;8.13;;
23376;SDS011;14353;46.070;13.222;2023-01-29T17:06:49;9.55;;;8.20;;
23376;SDS011;14353;46.070;13.222;2023-01-29T17:09:22;9.02;;;7.85;;
23376;SDS011;14353;46.070;13.222;2023-01-29T17:11:55;9.18;;;7.70;;
23376;SDS011;14353;46.070;13.222;2023-01-29T17:14:24;9.15;;;7.63;;
23376;SDS011;14353;46.070;13.222;2023-01-29T17:16:54;9.32;;;7.57;;
23376;SDS011;14353;46.070;13.222;2023-01-29T17:19:26;9.63;;;7.95;;
23376;SDS011;14353;46.070;13.222;2023-01-29T17:21:54;10.20;;;7.63;;
23376;SDS011;14353;46.070;13.222;2023-01-29T17:24:23;10.05;;;7.90;;